createdAt,value
2023-03-20T00:00:47.146Z,22.85
2023-03-20T00:03:15.561Z,21.20
2023-03-20T00:05:43.326Z,23.15
2023-03-20T00:08:11.493Z,23.10
2023-03-20T00:10:42.144Z,21.70
2023-03-20T00:13:15.826Z,22.95
2023-03-20T00:15:45.054Z,24.08
2023-03-20T00:18:16.374Z,21.95
2023-03-20T00:20:45.665Z,21.55
2023-03-20T00:23:13.851Z,22.42
2023-03-20T00:25:44.032Z,23.27
2023-03-20T00:28:33.351Z,22.02
2023-03-20T00:31:01.608Z,22.42
2023-03-20T00:33:31.304Z,21.08
2023-03-20T00:35:59.276Z,22.95
2023-03-20T00:38:26.971Z,23.42
2023-03-20T00:40:56.475Z,25.40
2023-03-20T00:43:24.647Z,25.70
2023-03-20T00:45:53.091Z,24.17
2023-03-20T00:48:21.325Z,25.45
2023-03-20T00:50:50.965Z,24.92
2023-03-20T00:53:18.658Z,23.83
2023-03-20T00:55:46.928Z,24.77
2023-03-20T00:58:16.084Z,21.98
2023-03-20T01:00:44.535Z,22.55
2023-03-20T01:03:15.930Z,22.45
2023-03-20T01:05:44.204Z,20.63
2023-03-20T01:08:16.578Z,20.98
2023-03-20T01:10:45.402Z,20.70
2023-03-20T01:13:20.704Z,20.00
2023-03-20T01:15:50.512Z,19.88
2023-03-20T01:18:19.625Z,18.70
2023-03-20T01:20:47.575Z,16.85
2023-03-20T01:23:16.088Z,17.20
2023-03-20T01:25:43.913Z,16.48
2023-03-20T01:28:18.665Z,15.68
2023-03-20T01:30:47.391Z,15.38
2023-03-20T01:33:16.996Z,14.85
2023-03-20T01:35:49.032Z,14.85
2023-03-20T01:38:20.576Z,13.85
2023-03-20T01:40:54.754Z,13.90
2023-03-20T01:43:26.341Z,14.88
2023-03-20T01:45:58.313Z,13.15
2023-03-20T01:48:32.565Z,13.73
2023-03-20T01:51:00.874Z,13.65
2023-03-20T01:53:30.229Z,13.52
2023-03-20T01:56:01.824Z,13.50
2023-03-20T01:58:45.770Z,14.07
2023-03-20T02:01:14.965Z,13.88
2023-03-20T02:03:48.155Z,14.45
2023-03-20T02:06:29.204Z,14.35
2023-03-20T02:09:25.906Z,13.43
2023-03-20T02:11:54.873Z,12.60
2023-03-20T02:14:24.442Z,13.13
2023-03-20T02:16:57.725Z,12.07
2023-03-20T02:19:46.204Z,11.43
2023-03-20T02:22:26.471Z,12.40
2023-03-20T02:25:25.281Z,10.35
2023-03-20T02:28:11.332Z,9.52
2023-03-20T02:30:54.771Z,8.40
2023-03-20T02:33:54.785Z,8.25
2023-03-20T02:36:46.586Z,8.68
2023-03-20T02:39:23.492Z,8.05
2023-03-20T02:41:55.404Z,7.72
2023-03-20T02:44:26.739Z,7.72
2023-03-20T02:47:04.000Z,8.20
2023-03-20T02:49:46.318Z,8.65
2023-03-20T02:52:18.488Z,7.95
2023-03-20T02:54:53.901Z,7.80
2023-03-20T02:57:24.569Z,7.43
2023-03-20T02:59:57.710Z,8.18
2023-03-20T03:02:36.841Z,8.00
2023-03-20T03:05:09.354Z,7.07
2023-03-20T03:07:38.382Z,7.90
2023-03-20T03:10:10.353Z,8.73
2023-03-20T03:12:41.135Z,8.27
2023-03-20T03:15:15.296Z,8.35
2023-03-20T03:17:44.189Z,8.32
2023-03-20T03:20:21.539Z,7.80
2023-03-20T03:22:49.693Z,7.05
2023-03-20T03:25:19.597Z,7.03
2023-03-20T03:27:50.553Z,6.80
2023-03-20T03:30:21.547Z,7.30
2023-03-20T03:32:51.733Z,6.20
2023-03-20T03:35:22.005Z,6.65
2023-03-20T03:37:56.270Z,6.53
2023-03-20T03:40:31.030Z,6.95
2023-03-20T03:43:03.136Z,6.65
2023-03-20T03:45:34.379Z,6.30
2023-03-20T03:48:05.047Z,6.03
2023-03-20T03:50:35.870Z,5.95
2023-03-20T03:53:05.558Z,6.78
2023-03-20T03:55:37.419Z,7.38
2023-03-20T03:58:11.961Z,6.97
2023-03-20T04:00:42.907Z,6.25
2023-03-20T04:03:11.367Z,5.80
2023-03-20T04:05:42.693Z,6.35
2023-03-20T04:08:10.509Z,5.20
2023-03-20T04:10:39.547Z,6.68
2023-03-20T04:13:09.280Z,5.70
2023-03-20T04:15:38.156Z,7.00
2023-03-20T04:18:07.524Z,6.97
2023-03-20T04:20:35.829Z,6.35
2023-03-20T04:23:06.430Z,6.97
2023-03-20T04:25:34.525Z,5.63
2023-03-20T04:28:04.502Z,6.45
2023-03-20T04:30:54.158Z,5.85
2023-03-20T04:33:41.050Z,5.38
2023-03-20T04:36:31.745Z,5.00
2023-03-20T04:39:00.017Z,4.45
2023-03-20T04:41:27.775Z,4.15
2023-03-20T04:43:59.431Z,4.03
2023-03-20T04:46:27.386Z,4.53
2023-03-20T04:48:55.824Z,3.78
2023-03-20T04:51:26.934Z,3.90
2023-03-20T04:53:54.877Z,4.20
2023-03-20T04:56:24.249Z,4.15
2023-03-20T04:58:53.893Z,3.90
2023-03-20T05:01:25.160Z,4.13
2023-03-20T05:03:53.082Z,3.85
2023-03-20T05:06:21.147Z,3.95
2023-03-20T05:08:49.654Z,4.97
2023-03-20T05:11:19.703Z,4.30
2023-03-20T05:14:04.590Z,4.50
2023-03-20T05:17:00.058Z,4.75
2023-03-20T05:19:40.861Z,5.15
2023-03-20T05:22:08.553Z,4.43
2023-03-20T05:25:00.903Z,4.80
2023-03-20T05:27:48.937Z,5.38
2023-03-20T05:30:43.161Z,5.32
2023-03-20T05:33:41.784Z,6.22
2023-03-20T05:36:16.478Z,5.75
2023-03-20T05:38:55.428Z,5.72
2023-03-20T05:41:45.823Z,5.70
2023-03-20T05:44:32.510Z,8.30
2023-03-20T05:47:20.706Z,8.37
2023-03-20T05:50:07.918Z,5.88
2023-03-20T05:52:52.543Z,6.95
2023-03-20T05:55:29.063Z,7.30
2023-03-20T05:58:23.035Z,7.00
2023-03-20T06:01:29.108Z,7.47
2023-03-20T06:04:16.249Z,7.18
2023-03-20T06:07:06.638Z,7.95
2023-03-20T06:09:35.858Z,7.72
2023-03-20T06:12:08.221Z,8.05
2023-03-20T06:14:36.341Z,8.35
2023-03-20T06:17:07.713Z,8.18
2023-03-20T06:19:36.696Z,8.07
2023-03-20T06:22:05.996Z,7.95
2023-03-20T06:24:35.441Z,9.10
2023-03-20T06:27:03.764Z,8.13
2023-03-20T06:29:32.535Z,9.23
2023-03-20T06:32:14.471Z,8.15
2023-03-20T06:34:43.089Z,8.15
2023-03-20T06:37:13.112Z,9.10
2023-03-20T06:39:41.599Z,7.75
2023-03-20T06:42:15.052Z,8.48
2023-03-20T06:44:44.056Z,8.93
2023-03-20T06:47:16.633Z,9.40
2023-03-20T06:49:46.018Z,9.00
2023-03-20T06:52:18.616Z,9.32
2023-03-20T06:54:56.291Z,8.93
2023-03-20T06:57:24.495Z,8.73
2023-03-20T06:59:52.650Z,9.65
2023-03-20T07:02:22.101Z,9.10
2023-03-20T07:04:49.881Z,8.98
2023-03-20T07:07:19.312Z,9.85
2023-03-20T07:09:47.263Z,9.07
2023-03-20T07:12:16.149Z,9.55
2023-03-20T07:14:44.706Z,9.15
2023-03-20T07:17:16.888Z,9.05
2023-03-20T07:19:45.202Z,9.52
2023-03-20T07:22:21.735Z,10.02
2023-03-20T07:24:50.180Z,9.52
2023-03-20T07:27:18.850Z,9.95
2023-03-20T07:29:46.945Z,10.35
2023-03-20T07:32:18.639Z,9.65
2023-03-20T07:34:51.283Z,10.75
2023-03-20T07:37:22.209Z,11.27
2023-03-20T07:39:59.107Z,9.90
2023-03-20T07:42:51.383Z,10.50
2023-03-20T07:45:51.434Z,10.98
2023-03-20T07:48:20.944Z,11.20
2023-03-20T07:50:49.090Z,12.35
2023-03-20T07:53:18.553Z,10.50
2023-03-20T07:55:49.430Z,10.65
2023-03-20T07:58:17.391Z,11.43
2023-03-20T08:00:45.517Z,10.77
2023-03-20T08:03:13.449Z,10.60
2023-03-20T08:05:41.412Z,10.63
2023-03-20T08:08:09.287Z,10.40
2023-03-20T08:10:38.790Z,11.27
2023-03-20T08:13:06.713Z,9.27
2023-03-20T08:15:34.814Z,9.90
2023-03-20T08:18:02.678Z,10.15
2023-03-20T08:20:31.387Z,9.48
2023-03-20T08:22:59.121Z,9.98
2023-03-20T08:25:29.249Z,10.27
2023-03-20T08:27:58.895Z,9.02
2023-03-20T08:30:27.116Z,9.80
2023-03-20T08:32:54.969Z,9.57
2023-03-20T08:35:32.968Z,9.43
2023-03-20T08:38:01.564Z,8.90
2023-03-20T08:40:29.575Z,9.07
2023-03-20T08:42:59.306Z,8.23
2023-03-20T08:45:27.213Z,8.82
2023-03-20T08:47:55.031Z,8.80
2023-03-20T08:50:22.996Z,8.35
2023-03-20T08:52:50.889Z,7.90
2023-03-20T08:55:19.926Z,7.57
2023-03-20T08:57:48.038Z,7.53
2023-03-20T09:00:19.111Z,7.88
2023-03-20T09:02:47.642Z,7.70
2023-03-20T09:05:15.386Z,7.90
2023-03-20T09:07:43.763Z,7.95
2023-03-20T09:10:13.078Z,8.23
2023-03-20T09:12:41.246Z,7.43
2023-03-20T09:15:09.822Z,7.25
2023-03-20T09:17:38.881Z,7.10
2023-03-20T09:20:08.238Z,7.07
2023-03-20T09:22:36.171Z,6.93
2023-03-20T09:25:04.136Z,6.25
2023-03-20T09:27:32.250Z,6.18
2023-03-20T09:29:59.919Z,7.10
2023-03-20T09:32:27.621Z,6.15
2023-03-20T09:34:56.686Z,5.45
2023-03-20T09:37:24.678Z,6.00
2023-03-20T09:39:52.297Z,5.85
2023-03-20T09:42:30.104Z,5.40
2023-03-20T09:45:04.534Z,5.55
2023-03-20T09:47:35.253Z,5.95
2023-03-20T09:50:24.021Z,5.03
2023-03-20T09:52:57.585Z,5.55
2023-03-20T09:55:31.731Z,5.28
2023-03-20T09:58:05.221Z,5.20
2023-03-20T10:00:35.980Z,5.43
2023-03-20T10:03:06.105Z,5.40
2023-03-20T10:05:39.327Z,6.03
2023-03-20T10:08:09.737Z,5.53
2023-03-20T10:10:43.697Z,5.85
2023-03-20T10:13:26.231Z,4.43
2023-03-20T10:15:57.510Z,5.38
2023-03-20T10:18:26.865Z,5.88
2023-03-20T10:21:01.186Z,6.88
2023-03-20T10:23:36.310Z,5.88
2023-03-20T10:26:07.725Z,5.93
2023-03-20T10:28:38.124Z,6.25
2023-03-20T10:31:17.802Z,6.05
2023-03-20T10:33:55.919Z,6.07
2023-03-20T10:36:41.280Z,5.95
2023-03-20T10:39:14.053Z,6.38
2023-03-20T10:41:45.511Z,6.10
2023-03-20T10:44:25.492Z,6.55
2023-03-20T10:46:54.914Z,6.78
2023-03-20T10:49:30.397Z,7.00
2023-03-20T10:52:01.911Z,6.40
2023-03-20T10:54:32.539Z,6.30
2023-03-20T10:57:01.784Z,5.93
2023-03-20T10:59:30.928Z,7.00
2023-03-20T11:01:58.886Z,6.78
2023-03-20T11:04:27.287Z,7.03
2023-03-20T11:07:02.720Z,6.50
2023-03-20T11:09:32.462Z,6.75
2023-03-20T11:12:01.778Z,7.35
2023-03-20T11:14:34.442Z,6.75
2023-03-20T11:17:03.996Z,7.72
2023-03-20T11:19:35.215Z,6.93
2023-03-20T11:22:10.366Z,6.68
2023-03-20T11:24:40.243Z,7.20
2023-03-20T11:27:10.473Z,6.70
2023-03-20T11:29:39.037Z,6.57
2023-03-20T11:32:28.578Z,6.80
2023-03-20T11:34:57.827Z,7.22
2023-03-20T11:37:29.153Z,6.82
2023-03-20T11:40:01.182Z,7.53
2023-03-20T11:42:31.511Z,7.82
2023-03-20T11:45:01.643Z,7.55
2023-03-20T11:47:33.324Z,7.43
2023-03-20T11:50:03.158Z,7.60
2023-03-20T11:52:34.508Z,6.70
2023-03-20T11:55:04.189Z,7.15
2023-03-20T11:57:36.499Z,6.88
2023-03-20T12:00:18.007Z,6.82
2023-03-20T12:02:46.191Z,7.43
2023-03-20T12:05:21.227Z,6.25
2023-03-20T12:07:52.106Z,7.07
2023-03-20T12:10:21.775Z,6.88
2023-03-20T12:12:51.788Z,6.75
2023-03-20T12:15:23.272Z,7.68
2023-03-20T12:17:55.790Z,6.43
2023-03-20T12:20:32.579Z,6.32
2023-03-20T12:23:10.987Z,6.53
2023-03-20T12:25:43.427Z,6.43
2023-03-20T12:28:16.055Z,6.82
2023-03-20T12:30:53.085Z,6.93
2023-03-20T12:33:25.216Z,6.10
2023-03-20T12:35:53.382Z,6.75
2023-03-20T12:38:28.982Z,6.88
2023-03-20T12:40:59.702Z,7.00
2023-03-20T12:43:28.468Z,7.07
2023-03-20T12:46:00.769Z,6.90
2023-03-20T12:48:43.145Z,7.05
2023-03-20T12:51:18.349Z,7.30
2023-03-20T12:53:56.297Z,6.28
2023-03-20T12:56:48.089Z,6.47
2023-03-20T12:59:21.851Z,6.57
2023-03-20T13:01:52.991Z,6.65
2023-03-20T13:04:29.149Z,6.95
2023-03-20T13:07:01.175Z,6.95
2023-03-20T13:09:47.906Z,6.85
2023-03-20T13:12:24.453Z,6.43
2023-03-20T13:15:00.604Z,6.65
2023-03-20T13:17:32.105Z,6.50
2023-03-20T13:20:17.113Z,6.22
2023-03-20T13:22:53.330Z,6.55
2023-03-20T13:25:30.582Z,6.72
2023-03-20T13:28:02.859Z,7.22
2023-03-20T13:30:34.800Z,5.85
2023-03-20T13:33:10.745Z,7.22
2023-03-20T13:35:44.846Z,6.38
2023-03-20T13:38:16.859Z,6.57
2023-03-20T13:40:47.468Z,7.22
2023-03-20T13:43:25.378Z,6.55
2023-03-20T13:45:58.600Z,7.68
2023-03-20T13:48:30.908Z,6.97
2023-03-20T13:51:06.213Z,7.13
2023-03-20T13:53:41.286Z,6.70
2023-03-20T13:56:16.675Z,7.50
2023-03-20T13:59:02.801Z,7.30
2023-03-20T14:01:38.763Z,6.80
2023-03-20T14:04:10.725Z,7.03
2023-03-20T14:06:48.714Z,7.00
2023-03-20T14:09:30.982Z,5.80
2023-03-20T14:12:03.437Z,6.80
2023-03-20T14:14:32.624Z,7.82
2023-03-20T14:17:08.712Z,6.50
2023-03-20T14:19:37.810Z,6.38
2023-03-20T14:22:06.503Z,6.63
2023-03-20T14:24:37.663Z,7.25
2023-03-20T14:27:06.804Z,6.40
2023-03-20T14:29:37.216Z,6.18
2023-03-20T14:32:07.465Z,5.90
2023-03-20T14:34:47.088Z,5.18
2023-03-20T14:37:38.415Z,5.88
2023-03-20T14:40:14.409Z,5.15
2023-03-20T14:42:49.412Z,5.97
2023-03-20T14:45:34.024Z,5.97
2023-03-20T14:48:06.963Z,7.05
2023-03-20T14:50:37.846Z,6.15
2023-03-20T14:53:14.735Z,6.00
2023-03-20T14:55:53.564Z,5.68
2023-03-20T14:58:53.418Z,6.10
2023-03-20T15:01:27.456Z,6.13
2023-03-20T15:03:58.643Z,6.72
2023-03-20T15:06:28.487Z,6.38
2023-03-20T15:08:58.268Z,6.22
2023-03-20T15:11:26.412Z,6.68
2023-03-20T15:13:55.956Z,6.40
2023-03-20T15:16:29.005Z,6.70
2023-03-20T15:18:57.061Z,6.57
2023-03-20T15:21:31.068Z,7.22
2023-03-20T15:23:59.033Z,7.55
2023-03-20T15:26:29.093Z,7.10
2023-03-20T15:29:01.601Z,8.05
2023-03-20T15:31:32.726Z,8.20
2023-03-20T15:34:01.986Z,7.65
2023-03-20T15:36:31.708Z,8.02
2023-03-20T15:39:15.208Z,8.15
2023-03-20T15:41:46.242Z,7.82
2023-03-20T15:44:20.990Z,7.35
2023-03-20T15:46:55.420Z,8.48
2023-03-20T15:49:24.196Z,8.60
2023-03-20T15:51:52.946Z,9.40
2023-03-20T15:54:22.290Z,8.40
2023-03-20T15:56:53.215Z,9.35
2023-03-20T15:59:24.717Z,8.45
2023-03-20T16:01:54.438Z,8.98
2023-03-20T16:04:22.699Z,10.18
2023-03-20T16:06:53.765Z,10.60
2023-03-20T16:09:21.488Z,10.38
2023-03-20T16:11:50.945Z,10.85
2023-03-20T16:14:23.259Z,10.45
2023-03-20T16:16:52.580Z,10.40
2023-03-20T16:19:20.975Z,10.52
2023-03-20T16:21:51.014Z,11.73
2023-03-20T16:24:21.410Z,10.88
2023-03-20T16:26:51.419Z,11.27
2023-03-20T16:29:19.921Z,11.30
2023-03-20T16:31:58.601Z,11.73
2023-03-20T16:34:28.532Z,12.75
2023-03-20T16:36:59.210Z,12.48
2023-03-20T16:39:28.752Z,42.17
2023-03-20T16:42:03.702Z,12.80
2023-03-20T16:44:36.302Z,12.27
2023-03-20T16:47:18.082Z,11.70
2023-03-20T16:50:05.203Z,12.30
2023-03-20T16:52:36.734Z,12.80
2023-03-20T16:55:05.279Z,11.18
2023-03-20T16:57:37.375Z,12.57
2023-03-20T17:00:08.243Z,12.07
2023-03-20T17:02:41.058Z,11.40
2023-03-20T17:05:14.182Z,11.48
2023-03-20T17:07:43.395Z,11.40
2023-03-20T17:10:18.334Z,10.38
2023-03-20T17:12:47.637Z,11.07
2023-03-20T17:15:16.830Z,10.60
2023-03-20T17:17:46.441Z,11.15
2023-03-20T17:20:20.149Z,11.27
2023-03-20T17:22:48.128Z,11.55
2023-03-20T17:25:15.866Z,11.30
2023-03-20T17:27:43.943Z,12.00
2023-03-20T17:30:18.213Z,11.60
2023-03-20T17:32:47.760Z,12.20
2023-03-20T17:35:15.581Z,12.95
2023-03-20T17:37:43.493Z,12.60
2023-03-20T17:40:18.343Z,13.73
2023-03-20T17:42:46.314Z,12.30
2023-03-20T17:45:14.938Z,12.90
2023-03-20T17:47:43.171Z,13.60
2023-03-20T17:50:18.242Z,14.15
2023-03-20T17:52:46.437Z,13.52
2023-03-20T17:55:15.570Z,13.70
2023-03-20T17:57:43.918Z,13.90
2023-03-20T18:00:16.454Z,13.38
2023-03-20T18:02:44.246Z,13.77
2023-03-20T18:05:12.516Z,14.65
2023-03-20T18:07:41.768Z,16.75
2023-03-20T18:10:18.257Z,15.32
2023-03-20T18:12:46.783Z,16.35
2023-03-20T18:15:14.748Z,17.23
2023-03-20T18:17:42.639Z,15.45
2023-03-20T18:20:23.793Z,16.15
2023-03-20T18:22:52.898Z,16.85
2023-03-20T18:25:22.131Z,17.58
2023-03-20T18:27:49.985Z,18.30
2023-03-20T18:30:19.791Z,18.98
2023-03-20T18:32:47.587Z,18.27
2023-03-20T18:35:15.377Z,18.15
2023-03-20T18:37:43.333Z,19.63
2023-03-20T18:40:21.180Z,18.98
2023-03-20T18:42:49.268Z,20.65
2023-03-20T18:45:17.453Z,20.27
2023-03-20T18:47:45.602Z,20.90
2023-03-20T18:50:21.722Z,21.42
2023-03-20T18:52:49.507Z,23.42
2023-03-20T18:55:19.106Z,21.83
2023-03-20T18:57:46.903Z,23.45
2023-03-20T19:00:21.217Z,23.38
2023-03-20T19:02:49.159Z,23.40
2023-03-20T19:05:18.749Z,22.90
2023-03-20T19:07:46.586Z,22.90
2023-03-20T19:10:28.184Z,23.98
2023-03-20T19:12:56.859Z,24.15
2023-03-20T19:15:26.351Z,24.48
2023-03-20T19:17:54.503Z,24.25
2023-03-20T19:20:34.117Z,24.77
2023-03-20T19:23:03.104Z,25.80
2023-03-20T19:25:32.555Z,24.15
2023-03-20T19:28:00.943Z,25.25
2023-03-20T19:30:31.756Z,24.23
2023-03-20T19:32:59.983Z,25.10
2023-03-20T19:35:58.426Z,25.42
2023-03-20T19:38:17.987Z,25.55
2023-03-20T19:40:49.344Z,25.08
2023-03-20T19:43:17.314Z,26.05
2023-03-20T19:45:45.604Z,26.88
2023-03-20T19:48:15.570Z,27.25
2023-03-20T19:50:43.977Z,26.92
2023-03-20T19:53:12.764Z,25.23
2023-03-20T19:55:40.914Z,25.30
2023-03-20T19:58:10.493Z,25.98
2023-03-20T20:00:56.940Z,26.95
2023-03-20T20:03:27.348Z,25.85
2023-03-20T20:05:55.457Z,26.63
2023-03-20T20:08:38.280Z,26.52
2023-03-20T20:11:12.910Z,27.73
2023-03-20T20:14:03.602Z,27.58
2023-03-20T20:16:30.692Z,26.92
2023-03-20T20:18:58.370Z,26.77
2023-03-20T20:24:25.242Z,27.13
2023-03-20T20:27:17.416Z,27.52
2023-03-20T20:29:55.745Z,26.05
2023-03-20T20:32:28.833Z,27.35
2023-03-20T20:40:57.978Z,27.15
2023-03-20T20:44:06.765Z,28.77
2023-03-20T20:46:27.428Z,27.27
2023-03-20T20:49:16.500Z,27.25
2023-03-20T20:51:51.606Z,27.17
2023-03-20T20:54:31.907Z,37.17
2023-03-20T20:57:04.629Z,28.73
2023-03-20T20:59:40.806Z,27.92
2023-03-20T21:02:17.096Z,28.58
2023-03-20T21:04:53.888Z,27.27
2023-03-20T21:07:27.124Z,27.55
2023-03-20T21:10:01.742Z,28.35
2023-03-20T21:12:58.153Z,30.63
2023-03-20T21:15:40.312Z,28.15
2023-03-20T21:18:14.224Z,27.05
2023-03-20T21:20:47.901Z,32.03
2023-03-20T21:23:23.656Z,34.42
2023-03-20T21:25:58.768Z,30.15
2023-03-20T21:28:48.985Z,28.27
2023-03-20T21:31:30.998Z,28.75
2023-03-20T21:34:12.974Z,28.83
2023-03-20T21:36:49.013Z,27.02
2023-03-20T21:39:23.500Z,24.30
2023-03-20T21:42:06.405Z,25.60
2023-03-20T21:48:18.911Z,25.08
2023-03-20T21:51:07.269Z,26.95
2023-03-20T22:02:50.545Z,23.60
2023-03-20T22:18:19.205Z,23.38
2023-03-20T22:31:00.345Z,22.73
2023-03-20T22:37:19.244Z,21.45
2023-03-20T22:39:46.253Z,20.98
2023-03-20T22:42:52.802Z,21.45
2023-03-20T22:45:38.159Z,21.55
2023-03-20T22:48:23.847Z,22.45
2023-03-20T22:51:12.638Z,22.63
2023-03-20T22:53:47.685Z,21.33
2023-03-20T22:56:26.311Z,20.75
2023-03-20T22:59:13.521Z,21.20
2023-03-20T23:01:57.684Z,21.30
2023-03-20T23:04:30.114Z,21.60
2023-03-20T23:07:20.211Z,21.85
2023-03-20T23:10:02.359Z,20.88
2023-03-20T23:12:36.532Z,21.55
2023-03-20T23:15:18.462Z,20.75
2023-03-20T23:17:51.656Z,20.88
2023-03-20T23:20:26.366Z,20.42
2023-03-20T23:23:04.961Z,20.88
2023-03-20T23:25:42.649Z,20.35
2023-03-20T23:28:24.690Z,20.50
2023-03-20T23:31:18.178Z,19.27
2023-03-20T23:34:01.314Z,21.38
2023-03-20T23:36:38.044Z,20.15
2023-03-20T23:39:18.114Z,21.10
2023-03-20T23:42:07.805Z,20.10
2023-03-20T23:45:02.097Z,21.40
2023-03-20T23:47:44.895Z,20.52
2023-03-20T23:50:28.880Z,19.33
2023-03-20T23:53:20.622Z,20.35
2023-03-20T23:56:07.363Z,20.50
2023-03-20T23:58:54.984Z,19.42
